createdAt,value
2023-05-14T00:00:49.080Z,94.70
2023-05-14T00:03:17.476Z,95.50
2023-05-14T00:05:46.946Z,95.60
2023-05-14T00:08:15.284Z,96.10
2023-05-14T00:10:43.344Z,96.20
2023-05-14T00:13:11.392Z,96.40
2023-05-14T00:15:39.864Z,96.80
2023-05-14T00:18:08.057Z,97.50
2023-05-14T00:20:36.413Z,97.70
2023-05-14T00:23:05.800Z,98.10
2023-05-14T00:25:34.078Z,98.80
2023-05-14T00:28:02.131Z,98.80
2023-05-14T00:30:30.615Z,99.00
2023-05-14T00:32:58.664Z,99.50
2023-05-14T00:35:26.977Z,99.90
2023-05-14T00:37:55.066Z,99.90
2023-05-14T00:40:27.539Z,99.90
2023-05-14T00:42:56.221Z,99.90
2023-05-14T00:45:24.593Z,99.90
2023-05-14T00:47:53.287Z,99.90
2023-05-14T00:50:22.123Z,99.90
2023-05-14T00:52:50.522Z,99.90
2023-05-14T00:55:19.157Z,99.90
2023-05-14T00:57:52.250Z,99.90
2023-05-14T01:00:20.965Z,99.90
2023-05-14T01:02:49.298Z,99.90
2023-05-14T01:05:17.608Z,99.90
2023-05-14T01:07:55.451Z,99.90
2023-05-14T01:10:29.262Z,99.90
2023-05-14T01:13:05.116Z,99.90
2023-05-14T01:15:35.944Z,99.90
2023-05-14T01:18:08.361Z,99.90
2023-05-14T01:20:36.826Z,99.90
2023-05-14T01:23:06.400Z,99.90
2023-05-14T01:25:35.264Z,99.90
2023-05-14T01:28:12.336Z,99.90
2023-05-14T01:30:46.183Z,99.90
2023-05-14T01:33:18.302Z,99.90
2023-05-14T01:35:49.660Z,99.90
2023-05-14T01:38:21.271Z,99.90
2023-05-14T01:40:51.540Z,99.90
2023-05-14T01:43:20.439Z,99.90
2023-05-14T01:45:48.978Z,99.90
2023-05-14T01:48:17.688Z,99.90
2023-05-14T01:50:45.911Z,99.90
2023-05-14T01:53:14.179Z,99.90
2023-05-14T01:55:43.824Z,99.90
2023-05-14T01:58:12.276Z,99.90
2023-05-14T02:00:40.423Z,99.90
2023-05-14T02:03:09.082Z,99.90
2023-05-14T02:05:37.274Z,99.90
2023-05-14T02:08:05.844Z,99.90
2023-05-14T02:10:34.033Z,99.90
2023-05-14T02:13:04.519Z,99.90
2023-05-14T02:15:32.663Z,99.90
2023-05-14T02:18:00.859Z,99.90
2023-05-14T02:20:28.937Z,99.90
2023-05-14T02:22:57.131Z,99.90
2023-05-14T02:25:25.462Z,99.90
2023-05-14T02:27:53.648Z,99.90
2023-05-14T02:30:23.452Z,99.90
2023-05-14T02:32:51.930Z,99.90
2023-05-14T02:35:20.155Z,99.90
2023-05-14T02:37:49.648Z,99.90
2023-05-14T02:40:17.826Z,99.90
2023-05-14T02:42:46.152Z,99.90
2023-05-14T02:45:14.190Z,99.90
2023-05-14T02:47:43.891Z,99.90
2023-05-14T02:50:12.368Z,99.90
2023-05-14T02:52:40.669Z,99.90
2023-05-14T02:55:10.074Z,99.90
2023-05-14T02:57:38.409Z,99.90
2023-05-14T03:00:09.092Z,99.90
2023-05-14T03:02:38.524Z,99.90
2023-05-14T03:05:09.343Z,99.90
2023-05-14T03:07:37.706Z,99.90
2023-05-14T03:10:09.095Z,99.90
2023-05-14T03:12:37.392Z,99.90
2023-05-14T03:15:05.843Z,99.90
2023-05-14T03:17:34.126Z,99.90
2023-05-14T03:20:02.197Z,99.90
2023-05-14T03:22:31.972Z,99.90
2023-05-14T03:24:59.998Z,99.90
2023-05-14T03:27:28.280Z,99.90
2023-05-14T03:29:56.403Z,99.90
2023-05-14T03:32:24.989Z,99.90
2023-05-14T03:34:53.071Z,99.90
2023-05-14T03:37:21.857Z,99.90
2023-05-14T03:39:51.313Z,99.90
2023-05-14T03:42:19.516Z,99.90
2023-05-14T03:44:49.103Z,99.90
2023-05-14T03:47:17.114Z,99.90
2023-05-14T03:49:45.517Z,99.90
2023-05-14T03:52:15.034Z,99.90
2023-05-14T03:54:45.477Z,99.90
2023-05-14T03:57:14.895Z,99.90
2023-05-14T03:59:43.420Z,99.90
2023-05-14T04:02:11.537Z,99.90
2023-05-14T04:04:40.275Z,99.90
2023-05-14T04:07:08.739Z,99.90
2023-05-14T04:09:37.086Z,99.90
2023-05-14T04:12:06.047Z,99.90
2023-05-14T04:14:36.687Z,99.90
2023-05-14T04:17:05.007Z,99.90
2023-05-14T04:19:33.169Z,99.90
2023-05-14T04:22:01.226Z,99.90
2023-05-14T04:24:29.529Z,99.90
2023-05-14T04:26:57.593Z,99.90
2023-05-14T04:29:25.950Z,99.90
2023-05-14T04:31:55.997Z,99.90
2023-05-14T04:34:24.424Z,99.90
2023-05-14T04:36:52.607Z,99.90
2023-05-14T04:39:22.701Z,99.90
2023-05-14T04:41:51.129Z,99.90
2023-05-14T04:44:19.433Z,99.90
2023-05-14T04:46:47.442Z,99.90
2023-05-14T04:49:17.077Z,99.90
2023-05-14T04:51:45.133Z,99.90
2023-05-14T04:54:13.541Z,99.90
2023-05-14T04:56:41.642Z,99.90
2023-05-14T04:59:09.850Z,99.90
2023-05-14T05:01:37.973Z,99.90
2023-05-14T05:04:06.427Z,99.90
2023-05-14T05:06:35.965Z,99.90
2023-05-14T05:09:04.488Z,99.90
2023-05-14T05:11:32.796Z,99.90
2023-05-14T05:14:00.968Z,99.90
2023-05-14T05:16:29.008Z,99.90
2023-05-14T05:18:57.339Z,99.90
2023-05-14T05:21:25.385Z,99.90
2023-05-14T05:23:55.052Z,99.90
2023-05-14T05:26:23.156Z,99.90
2023-05-14T05:28:51.303Z,99.90
2023-05-14T05:31:20.096Z,99.00
2023-05-14T05:33:48.437Z,97.70
2023-05-14T05:36:16.689Z,96.60
2023-05-14T05:38:44.806Z,96.20
2023-05-14T05:41:14.549Z,95.80
2023-05-14T05:43:42.569Z,95.00
2023-05-14T05:46:10.941Z,94.50
2023-05-14T05:48:39.055Z,94.40
2023-05-14T05:51:07.565Z,93.80
2023-05-14T05:53:35.625Z,93.70
2023-05-14T05:56:03.943Z,92.60
2023-05-14T05:58:33.351Z,92.10
2023-05-14T06:01:01.643Z,91.10
2023-05-14T06:03:29.733Z,91.50
2023-05-14T06:05:57.879Z,90.60
2023-05-14T06:08:25.907Z,90.70
2023-05-14T06:10:54.265Z,89.80
2023-05-14T06:13:22.303Z,87.00
2023-05-14T06:15:51.969Z,85.80
2023-05-14T06:18:19.994Z,85.00
2023-05-14T06:20:48.300Z,82.40
2023-05-14T06:23:16.358Z,81.50
2023-05-14T06:25:44.702Z,81.00
2023-05-14T06:28:12.750Z,79.70
2023-05-14T06:30:41.053Z,79.60
2023-05-14T06:33:10.689Z,78.30
2023-05-14T06:35:39.019Z,77.10
2023-05-14T06:38:07.064Z,76.80
2023-05-14T06:40:35.280Z,76.00
2023-05-14T06:43:03.336Z,76.40
2023-05-14T06:45:33.113Z,76.00
2023-05-14T06:48:01.484Z,74.50
2023-05-14T06:50:31.329Z,75.20
2023-05-14T06:52:59.383Z,74.90
2023-05-14T06:55:27.456Z,74.60
2023-05-14T06:57:55.628Z,73.70
2023-05-14T07:00:24.596Z,72.90
2023-05-14T07:02:53.017Z,72.70
2023-05-14T07:05:21.111Z,71.40
2023-05-14T07:07:50.632Z,70.70
2023-05-14T07:10:19.059Z,68.20
2023-05-14T07:12:47.147Z,66.90
2023-05-14T07:15:15.331Z,66.20
2023-05-14T07:17:43.419Z,66.80
2023-05-14T07:20:12.643Z,66.50
2023-05-14T07:22:40.928Z,65.80
2023-05-14T07:25:11.255Z,65.30
2023-05-14T07:27:39.442Z,65.20
2023-05-14T07:30:08.740Z,64.90
2023-05-14T07:32:37.106Z,62.50
2023-05-14T07:35:06.243Z,61.50
2023-05-14T07:37:34.649Z,60.90
2023-05-14T07:40:02.767Z,59.40
2023-05-14T07:42:36.608Z,59.20
2023-05-14T07:45:06.081Z,59.10
2023-05-14T07:47:35.067Z,57.90
2023-05-14T07:50:03.469Z,56.50
2023-05-14T07:52:31.761Z,55.20
2023-05-14T07:55:01.218Z,54.50
2023-05-14T07:57:29.595Z,52.80
2023-05-14T07:59:59.302Z,52.10
2023-05-14T08:02:28.257Z,51.20
2023-05-14T08:04:56.522Z,50.10
2023-05-14T08:07:24.895Z,49.20
2023-05-14T08:09:52.962Z,49.00
2023-05-14T08:12:21.248Z,48.10
2023-05-14T08:14:49.418Z,48.20
2023-05-14T08:17:19.046Z,48.00
2023-05-14T08:19:47.151Z,47.60
2023-05-14T08:22:15.510Z,45.70
2023-05-14T08:24:43.826Z,45.70
2023-05-14T08:27:12.136Z,45.30
2023-05-14T08:29:40.139Z,43.80
2023-05-14T08:32:16.033Z,42.80
2023-05-14T08:34:52.839Z,42.70
2023-05-14T08:37:21.123Z,43.00
2023-05-14T08:39:49.200Z,43.80
2023-05-14T08:42:21.870Z,43.40
2023-05-14T08:44:54.172Z,42.30
2023-05-14T08:47:24.928Z,41.10
2023-05-14T08:50:02.021Z,40.30
2023-05-14T08:52:30.660Z,38.70
2023-05-14T08:54:59.936Z,39.50
2023-05-14T08:57:29.925Z,36.00
2023-05-14T08:59:59.471Z,36.10
2023-05-14T09:02:31.708Z,37.10
2023-05-14T09:05:03.742Z,36.30
2023-05-14T09:07:35.389Z,36.50
2023-05-14T09:12:59.634Z,36.00
2023-05-14T09:15:29.059Z,35.90
2023-05-14T09:17:58.096Z,35.60
2023-05-14T09:20:28.445Z,34.00
2023-05-14T09:22:57.293Z,34.20
2023-05-14T09:25:28.723Z,34.30
2023-05-14T09:27:59.046Z,33.90
2023-05-14T09:30:32.177Z,35.00
2023-05-14T09:33:00.754Z,35.10
2023-05-14T09:35:30.173Z,34.80
2023-05-14T09:37:58.520Z,35.20
2023-05-14T09:40:26.761Z,35.00
2023-05-14T09:42:56.294Z,34.30
2023-05-14T09:45:24.521Z,35.10
2023-05-14T09:47:53.479Z,34.40
2023-05-14T09:50:21.905Z,33.90
2023-05-14T09:52:51.367Z,34.20
2023-05-14T09:55:21.329Z,33.90
2023-05-14T09:57:49.856Z,34.40
2023-05-14T10:00:19.367Z,34.20
2023-05-14T10:02:48.909Z,34.50
2023-05-14T10:05:17.754Z,34.60
2023-05-14T10:07:49.089Z,35.00
2023-05-14T10:10:22.206Z,35.60
2023-05-14T10:12:53.930Z,36.20
2023-05-14T10:15:25.409Z,35.70
2023-05-14T10:17:57.920Z,35.60
2023-05-14T10:20:27.795Z,35.30
2023-05-14T10:22:56.504Z,35.20
2023-05-14T10:25:26.498Z,36.00
2023-05-14T10:27:55.093Z,36.30
2023-05-14T10:30:24.430Z,35.50
2023-05-14T10:33:08.030Z,35.50
2023-05-14T10:36:02.010Z,35.10
2023-05-14T10:38:31.287Z,35.20
2023-05-14T10:41:02.939Z,35.60
2023-05-14T10:43:32.226Z,35.40
2023-05-14T10:46:01.487Z,35.50
2023-05-14T10:48:29.949Z,35.60
2023-05-14T10:50:59.061Z,35.50
2023-05-14T10:53:38.173Z,35.80
2023-05-14T10:56:10.228Z,36.20
2023-05-14T10:58:39.337Z,36.30
2023-05-14T11:01:08.936Z,36.80
2023-05-14T11:03:44.865Z,36.50
2023-05-14T11:06:16.178Z,36.80
2023-05-14T11:08:46.409Z,36.80
2023-05-14T11:11:16.350Z,37.00
2023-05-14T11:13:45.491Z,36.00
2023-05-14T11:16:23.441Z,34.70
2023-05-14T11:19:01.823Z,33.90
2023-05-14T11:21:31.854Z,33.50
2023-05-14T11:24:01.333Z,33.30
2023-05-14T11:26:32.551Z,33.30
2023-05-14T11:29:01.022Z,33.30
2023-05-14T11:31:29.333Z,33.50
2023-05-14T11:33:58.015Z,33.70
2023-05-14T11:36:27.735Z,33.80
2023-05-14T11:38:55.990Z,34.40
2023-05-14T11:41:24.544Z,34.10
2023-05-14T11:43:54.347Z,33.60
2023-05-14T11:46:22.609Z,34.00
2023-05-14T11:48:51.859Z,34.60
2023-05-14T11:51:20.028Z,32.30
2023-05-14T11:53:48.083Z,30.60
2023-05-14T11:56:16.473Z,28.30
2023-05-14T11:58:49.439Z,27.70
2023-05-14T12:01:19.243Z,27.50
2023-05-14T12:03:47.620Z,28.30
2023-05-14T12:06:16.027Z,28.40
2023-05-14T12:08:44.151Z,28.70
2023-05-14T12:11:12.414Z,29.20
2023-05-14T12:13:41.126Z,29.20
2023-05-14T12:16:09.390Z,29.00
2023-05-14T12:18:39.227Z,28.90
2023-05-14T12:21:08.839Z,29.00
2023-05-14T12:23:39.622Z,28.90
2023-05-14T12:26:09.870Z,28.30
2023-05-14T12:28:43.163Z,28.30
2023-05-14T12:31:11.520Z,28.40
2023-05-14T12:33:41.319Z,28.80
2023-05-14T12:36:21.280Z,28.70
2023-05-14T12:38:50.543Z,27.60
2023-05-14T12:41:18.849Z,26.60
2023-05-14T12:43:49.281Z,25.20
2023-05-14T12:46:17.520Z,25.20
2023-05-14T12:48:47.250Z,25.00
2023-05-14T12:51:15.477Z,25.10
2023-05-14T12:53:43.779Z,25.60
2023-05-14T12:56:12.479Z,25.20
2023-05-14T12:58:40.984Z,25.00
2023-05-14T13:01:09.095Z,24.40
2023-05-14T13:03:37.427Z,23.60
2023-05-14T13:06:07.122Z,23.50
2023-05-14T13:08:36.341Z,23.50
2023-05-14T13:11:04.406Z,24.00
2023-05-14T13:13:32.581Z,24.30
2023-05-14T13:16:00.991Z,24.60
2023-05-14T13:18:29.306Z,25.20
2023-05-14T13:20:57.360Z,25.90
2023-05-14T13:23:27.330Z,26.40
2023-05-14T13:25:55.454Z,26.30
2023-05-14T13:28:23.809Z,25.20
2023-05-14T13:31:06.885Z,24.70
2023-05-14T13:33:37.027Z,25.10
2023-05-14T13:36:05.855Z,26.30
2023-05-14T13:38:35.936Z,25.80
2023-05-14T13:41:04.158Z,25.40
2023-05-14T13:43:32.579Z,25.80
2023-05-14T13:46:01.087Z,26.20
2023-05-14T13:48:31.072Z,26.70
2023-05-14T13:50:59.233Z,27.10
2023-05-14T13:53:27.765Z,27.60
2023-05-14T13:55:58.481Z,28.30
2023-05-14T13:58:26.862Z,28.20
2023-05-14T14:00:55.544Z,27.90
2023-05-14T14:03:23.676Z,27.60
2023-05-14T14:05:52.236Z,27.60
2023-05-14T14:08:23.462Z,28.10
2023-05-14T14:10:54.570Z,28.50
2023-05-14T14:13:24.548Z,29.20
2023-05-14T14:15:52.925Z,29.70
2023-05-14T14:18:21.247Z,30.10
2023-05-14T14:20:49.451Z,31.10
2023-05-14T14:23:17.756Z,31.80
2023-05-14T14:25:46.031Z,33.10
2023-05-14T14:28:14.154Z,33.10
2023-05-14T14:30:43.884Z,33.50
2023-05-14T14:33:12.440Z,33.70
2023-05-14T14:35:40.704Z,33.80
2023-05-14T14:38:08.804Z,34.10
2023-05-14T14:40:36.985Z,34.20
2023-05-14T14:43:05.190Z,34.30
2023-05-14T14:45:33.455Z,35.00
2023-05-14T14:48:25.252Z,35.20
2023-05-14T14:50:53.770Z,35.70
2023-05-14T14:53:21.873Z,36.20
2023-05-14T14:55:50.793Z,36.10
2023-05-14T14:58:19.890Z,36.20
2023-05-14T15:00:48.092Z,36.60
2023-05-14T15:03:16.596Z,37.40
2023-05-14T15:05:46.568Z,37.60
2023-05-14T15:08:14.704Z,37.80
2023-05-14T15:10:43.303Z,37.70
2023-05-14T15:13:11.832Z,37.80
2023-05-14T15:15:40.142Z,38.00
2023-05-14T15:18:08.447Z,38.00
2023-05-14T15:20:36.645Z,38.10
2023-05-14T15:23:06.173Z,38.20
2023-05-14T15:25:34.424Z,38.50
2023-05-14T15:28:02.476Z,38.40
2023-05-14T15:30:31.282Z,38.30
2023-05-14T15:32:59.688Z,38.40
2023-05-14T15:35:27.988Z,38.20
2023-05-14T15:37:57.868Z,38.40
2023-05-14T15:40:28.327Z,38.80
2023-05-14T15:42:56.403Z,38.30
2023-05-14T15:45:24.647Z,38.40
2023-05-14T15:47:52.830Z,38.90
2023-05-14T15:50:21.598Z,39.00
2023-05-14T15:52:49.890Z,40.10
2023-05-14T15:55:18.073Z,40.20
2023-05-14T15:57:47.654Z,39.50
2023-05-14T16:00:16.520Z,39.70
2023-05-14T16:02:44.871Z,39.70
2023-05-14T16:05:13.056Z,39.50
2023-05-14T16:07:41.214Z,40.00
2023-05-14T16:10:10.269Z,39.90
2023-05-14T16:12:38.340Z,39.50
2023-05-14T16:15:09.214Z,39.80
2023-05-14T16:17:37.440Z,39.40
2023-05-14T16:20:06.535Z,39.90
2023-05-14T16:22:34.723Z,39.80
2023-05-14T16:25:04.534Z,40.30
2023-05-14T16:27:33.003Z,40.80
2023-05-14T16:30:01.077Z,41.20
2023-05-14T16:32:30.822Z,41.50
2023-05-14T16:34:58.942Z,42.20
2023-05-14T16:37:27.231Z,41.20
2023-05-14T16:39:55.332Z,41.80
2023-05-14T16:42:23.395Z,41.90
2023-05-14T16:44:51.585Z,41.70
2023-05-14T16:47:19.756Z,42.00
2023-05-14T16:49:49.325Z,42.60
2023-05-14T16:52:17.404Z,42.40
2023-05-14T16:54:45.807Z,42.40
2023-05-14T16:57:13.934Z,42.40
2023-05-14T16:59:42.143Z,43.40
2023-05-14T17:02:10.891Z,43.40
2023-05-14T17:04:41.968Z,43.30
2023-05-14T17:07:11.849Z,43.90
2023-05-14T17:09:39.883Z,43.80
2023-05-14T17:12:09.696Z,43.50
2023-05-14T17:14:37.763Z,43.60
2023-05-14T17:17:08.411Z,43.90
2023-05-14T17:19:36.502Z,44.00
2023-05-14T17:22:05.840Z,44.30
2023-05-14T17:24:36.583Z,44.30
2023-05-14T17:27:05.083Z,44.50
2023-05-14T17:29:33.505Z,44.60
2023-05-14T17:32:03.484Z,44.70
2023-05-14T17:34:32.036Z,45.00
2023-05-14T17:37:00.863Z,45.20
2023-05-14T17:39:29.336Z,45.40
2023-05-14T17:41:58.869Z,46.00
2023-05-14T17:44:27.064Z,46.30
2023-05-14T17:46:55.287Z,46.50
2023-05-14T17:49:23.345Z,46.60
2023-05-14T17:51:51.614Z,47.30
2023-05-14T17:54:19.649Z,48.00
2023-05-14T17:56:50.934Z,48.20
2023-05-14T17:59:21.957Z,47.70
2023-05-14T18:01:51.938Z,48.20
2023-05-14T18:04:20.319Z,49.00
2023-05-14T18:06:48.402Z,50.60
2023-05-14T18:09:16.475Z,51.90
2023-05-14T18:11:45.044Z,51.90
2023-05-14T18:14:13.128Z,53.10
2023-05-14T18:16:42.927Z,53.10
2023-05-14T18:19:11.481Z,55.00
2023-05-14T18:21:39.625Z,54.30
2023-05-14T18:24:08.712Z,54.50
2023-05-14T18:26:36.890Z,54.40
2023-05-14T18:29:05.256Z,54.60
2023-05-14T18:31:33.384Z,54.80
2023-05-14T18:34:03.100Z,55.30
2023-05-14T18:36:31.368Z,55.50
2023-05-14T18:38:59.408Z,56.10
2023-05-14T18:41:27.868Z,56.50
2023-05-14T18:43:55.916Z,56.80
2023-05-14T18:46:24.385Z,57.00
2023-05-14T18:48:52.623Z,57.50
2023-05-14T18:51:22.152Z,58.20
2023-05-14T18:53:50.269Z,58.50
2023-05-14T18:56:18.456Z,60.20
2023-05-14T18:58:46.507Z,61.20
2023-05-14T19:01:14.553Z,61.20
2023-05-14T19:03:42.880Z,61.60
2023-05-14T19:06:11.264Z,62.00
2023-05-14T19:08:41.336Z,62.80
2023-05-14T19:11:09.600Z,63.70
2023-05-14T19:13:37.670Z,64.30
2023-05-14T19:16:06.720Z,65.10
2023-05-14T19:18:35.331Z,66.30
2023-05-14T19:21:03.622Z,67.00
2023-05-14T19:23:32.728Z,67.80
2023-05-14T19:26:02.568Z,68.80
2023-05-14T19:28:30.858Z,69.90
2023-05-14T19:30:58.946Z,70.90
2023-05-14T19:33:27.801Z,72.10
2023-05-14T19:35:56.481Z,73.10
2023-05-14T19:38:24.868Z,74.20
2023-05-14T19:40:56.697Z,75.30
2023-05-14T19:43:27.981Z,77.20
2023-05-14T19:45:56.129Z,78.40
2023-05-14T19:48:24.493Z,80.90
2023-05-14T19:50:52.881Z,82.60
2023-05-14T19:53:21.223Z,83.30
2023-05-14T19:55:49.242Z,84.20
2023-05-14T19:58:17.521Z,85.70
2023-05-14T20:00:47.377Z,87.30
2023-05-14T20:03:16.166Z,88.80
2023-05-14T20:05:46.134Z,90.10
2023-05-14T20:08:14.342Z,90.70
2023-05-14T20:10:42.544Z,91.30
2023-05-14T20:13:10.762Z,91.80
2023-05-14T20:15:38.844Z,92.60
2023-05-14T20:18:08.608Z,93.20
2023-05-14T20:20:36.776Z,94.70
2023-05-14T20:23:05.008Z,95.10
2023-05-14T20:25:33.581Z,95.60
2023-05-14T20:28:01.941Z,96.10
2023-05-14T20:30:30.166Z,96.50
2023-05-14T20:32:58.383Z,96.80
2023-05-14T20:35:28.197Z,97.40
2023-05-14T20:37:56.348Z,98.20
2023-05-14T20:40:25.412Z,98.40
2023-05-14T20:42:53.539Z,98.50
2023-05-14T20:45:21.921Z,98.70
2023-05-14T20:47:50.063Z,99.20
2023-05-14T20:50:18.452Z,99.30
2023-05-14T20:52:48.207Z,99.20
2023-05-14T20:55:16.404Z,99.20
2023-05-14T20:57:44.738Z,99.20
2023-05-14T21:00:14.004Z,99.20
2023-05-14T21:02:42.312Z,99.30
2023-05-14T21:05:10.996Z,99.30
2023-05-14T21:07:39.552Z,99.40
2023-05-14T21:10:10.242Z,99.70
2023-05-14T21:12:38.388Z,99.60
2023-05-14T21:15:07.537Z,99.80
2023-05-14T21:17:35.634Z,99.70
2023-05-14T21:20:04.038Z,99.90
2023-05-14T21:22:32.096Z,99.90
2023-05-14T21:25:00.403Z,99.90
2023-05-14T21:27:29.966Z,99.90
2023-05-14T21:29:58.400Z,99.90
2023-05-14T21:32:26.527Z,99.90
2023-05-14T21:34:54.873Z,99.90
2023-05-14T21:37:23.439Z,99.90
2023-05-14T21:39:51.921Z,99.90
2023-05-14T21:42:21.211Z,99.90
2023-05-14T21:44:50.807Z,99.90
2023-05-14T21:47:21.074Z,99.90
2023-05-14T21:49:49.480Z,99.90
2023-05-14T21:52:17.716Z,99.90
2023-05-14T21:54:46.061Z,99.90
2023-05-14T21:57:14.189Z,99.90
2023-05-14T21:59:42.755Z,99.90
2023-05-14T22:02:12.352Z,99.90
2023-05-14T22:04:40.605Z,99.90
2023-05-14T22:07:08.880Z,99.90
2023-05-14T22:09:36.958Z,99.90
2023-05-14T22:12:05.889Z,99.90
2023-05-14T22:14:34.242Z,99.90
2023-05-14T22:17:02.497Z,99.90
2023-05-14T22:19:32.091Z,99.90
2023-05-14T22:22:00.519Z,99.90
2023-05-14T22:24:28.734Z,99.90
2023-05-14T22:26:56.783Z,99.90
2023-05-14T22:29:24.992Z,99.90
2023-05-14T22:31:53.153Z,99.90
2023-05-14T22:34:21.274Z,99.90
2023-05-14T22:36:50.886Z,99.90
2023-05-14T22:39:18.957Z,99.90
2023-05-14T22:41:47.278Z,99.90
2023-05-14T22:44:15.452Z,99.90
2023-05-14T22:46:43.845Z,99.90
2023-05-14T22:49:13.582Z,99.90
2023-05-14T22:51:42.390Z,99.90
2023-05-14T22:54:11.972Z,99.90
2023-05-14T22:56:40.324Z,99.90
2023-05-14T22:59:10.286Z,99.90
2023-05-14T23:01:38.654Z,99.90
2023-05-14T23:04:07.007Z,99.90
2023-05-14T23:06:38.248Z,99.90
2023-05-14T23:09:06.482Z,99.90
2023-05-14T23:11:36.002Z,99.90
2023-05-14T23:14:07.104Z,99.90
2023-05-14T23:16:35.340Z,99.90
2023-05-14T23:19:03.716Z,99.90
2023-05-14T23:21:32.241Z,99.90
2023-05-14T23:24:00.308Z,99.90
2023-05-14T23:26:28.738Z,99.90
2023-05-14T23:28:58.121Z,99.90
2023-05-14T23:31:26.234Z,99.90
2023-05-14T23:33:54.367Z,99.90
2023-05-14T23:36:22.542Z,99.90
2023-05-14T23:38:50.981Z,99.90
2023-05-14T23:41:19.096Z,99.90
2023-05-14T23:43:48.883Z,99.90
2023-05-14T23:46:18.642Z,99.90
2023-05-14T23:48:47.008Z,99.90
2023-05-14T23:51:15.111Z,99.90
2023-05-14T23:53:45.976Z,99.90
2023-05-14T23:56:14.171Z,99.90
2023-05-14T23:58:42.610Z,99.90
